sensor_id;sensor_type;location;lat;lon;timestamp;P1;durP1;ratioP1;P2;durP2;ratioP2
58460;SDS011;45558;37.752;-97.822;2023-11-19T00:02:21;22.00;;;2.85;;
58460;SDS011;45558;37.752;-97.822;2023-11-19T00:04:47;19.75;;;2.60;;
58460;SDS011;45558;37.752;-97.822;2023-11-19T00:07:13;17.33;;;2.75;;
58460;SDS011;45558;37.752;-97.822;2023-11-19T00:09:39;20.50;;;2.58;;
58460;SDS011;45558;37.752;-97.822;2023-11-19T00:12:05;22.10;;;2.78;;
58460;SDS011;45558;37.752;-97.822;2023-11-19T00:14:32;16.00;;;2.47;;
58460;SDS011;45558;37.752;-97.822;2023-11-19T00:16:58;16.90;;;2.63;;
58460;SDS011;45558;37.752;-97.822;2023-11-19T00:19:24;16.75;;;2.45;;
58460;SDS011;45558;37.752;-97.822;2023-11-19T00:21:51;15.57;;;2.15;;
58460;SDS011;45558;37.752;-97.822;2023-11-19T00:24:18;18.88;;;2.95;;
58460;SDS011;45558;37.752;-97.822;2023-11-19T00:26:45;20.00;;;2.80;;
58460;SDS011;45558;37.752;-97.822;2023-11-19T00:29:11;21.25;;;1.98;;
58460;SDS011;45558;37.752;-97.822;2023-11-19T00:31:39;12.00;;;1.77;;
58460;SDS011;45558;37.752;-97.822;2023-11-19T00:34:04;25.60;;;2.47;;
58460;SDS011;45558;37.752;-97.822;2023-11-19T00:36:31;19.13;;;3.35;;
58460;SDS011;45558;37.752;-97.822;2023-11-19T00:38:57;20.55;;;2.92;;
58460;SDS011;45558;37.752;-97.822;2023-11-19T00:41:23;21.90;;;2.28;;
58460;SDS011;45558;37.752;-97.822;2023-11-19T00:43:48;20.90;;;2.53;;
58460;SDS011;45558;37.752;-97.822;2023-11-19T00:46:14;20.88;;;3.50;;
58460;SDS011;45558;37.752;-97.822;2023-11-19T00:48:40;25.65;;;2.70;;
58460;SDS011;45558;37.752;-97.822;2023-11-19T00:51:06;20.38;;;2.50;;
58460;SDS011;45558;37.752;-97.822;2023-11-19T00:53:33;21.60;;;4.40;;
58460;SDS011;45558;37.752;-97.822;2023-11-19T00:55:59;25.17;;;2.83;;
58460;SDS011;45558;37.752;-97.822;2023-11-19T00:58:25;17.50;;;1.83;;
58460;SDS011;45558;37.752;-97.822;2023-11-19T01:00:52;12.00;;;1.50;;
58460;SDS011;45558;37.752;-97.822;2023-11-19T01:03:17;17.20;;;1.83;;
58460;SDS011;45558;37.752;-97.822;2023-11-19T01:05:43;23.42;;;2.40;;
58460;SDS011;45558;37.752;-97.822;2023-11-19T01:08:09;30.98;;;5.03;;
58460;SDS011;45558;37.752;-97.822;2023-11-19T01:10:38;16.02;;;2.53;;
58460;SDS011;45558;37.752;-97.822;2023-11-19T01:13:04;13.63;;;2.03;;
58460;SDS011;45558;37.752;-97.822;2023-11-19T01:15:33;16.05;;;1.55;;
58460;SDS011;45558;37.752;-97.822;2023-11-19T01:17:58;10.45;;;2.00;;
58460;SDS011;45558;37.752;-97.822;2023-11-19T01:20:24;13.18;;;2.28;;
58460;SDS011;45558;37.752;-97.822;2023-11-19T01:22:51;23.90;;;2.17;;
58460;SDS011;45558;37.752;-97.822;2023-11-19T01:25:17;12.05;;;1.30;;
58460;SDS011;45558;37.752;-97.822;2023-11-19T01:27:42;14.00;;;2.50;;
58460;SDS011;45558;37.752;-97.822;2023-11-19T01:30:08;14.02;;;1.90;;
58460;SDS011;45558;37.752;-97.822;2023-11-19T01:32:38;12.35;;;2.50;;
58460;SDS011;45558;37.752;-97.822;2023-11-19T01:35:04;16.77;;;2.15;;
58460;SDS011;45558;37.752;-97.822;2023-11-19T01:37:30;18.27;;;2.97;;
58460;SDS011;45558;37.752;-97.822;2023-11-19T01:39:57;18.00;;;2.55;;
58460;SDS011;45558;37.752;-97.822;2023-11-19T01:42:23;19.02;;;2.67;;
58460;SDS011;45558;37.752;-97.822;2023-11-19T01:44:57;17.15;;;2.10;;
58460;SDS011;45558;37.752;-97.822;2023-11-19T01:47:25;14.70;;;1.85;;
58460;SDS011;45558;37.752;-97.822;2023-11-19T01:49:51;12.32;;;1.23;;
58460;SDS011;45558;37.752;-97.822;2023-11-19T01:52:17;13.30;;;2.15;;
58460;SDS011;45558;37.752;-97.822;2023-11-19T01:54:44;15.82;;;1.40;;
58460;SDS011;45558;37.752;-97.822;2023-11-19T01:57:10;9.70;;;2.25;;
58460;SDS011;45558;37.752;-97.822;2023-11-19T01:59:36;9.45;;;1.38;;
58460;SDS011;45558;37.752;-97.822;2023-11-19T02:02:01;15.60;;;1.52;;
58460;SDS011;45558;37.752;-97.822;2023-11-19T02:04:27;11.52;;;1.48;;
58460;SDS011;45558;37.752;-97.822;2023-11-19T02:06:53;9.50;;;1.73;;
58460;SDS011;45558;37.752;-97.822;2023-11-19T02:09:23;14.07;;;2.08;;
58460;SDS011;45558;37.752;-97.822;2023-11-19T02:11:48;16.70;;;2.38;;
58460;SDS011;45558;37.752;-97.822;2023-11-19T02:14:16;16.73;;;2.08;;
58460;SDS011;45558;37.752;-97.822;2023-11-19T02:16:42;10.27;;;1.40;;
58460;SDS011;45558;37.752;-97.822;2023-11-19T02:19:08;16.05;;;2.05;;
58460;SDS011;45558;37.752;-97.822;2023-11-19T02:21:36;12.68;;;1.90;;
58460;SDS011;45558;37.752;-97.822;2023-11-19T02:24:03;7.97;;;2.30;;
58460;SDS011;45558;37.752;-97.822;2023-11-19T02:26:44;10.13;;;1.40;;
58460;SDS011;45558;37.752;-97.822;2023-11-19T02:29:15;16.13;;;1.58;;
58460;SDS011;45558;37.752;-97.822;2023-11-19T02:31:41;8.35;;;1.45;;
58460;SDS011;45558;37.752;-97.822;2023-11-19T02:34:10;24.95;;;3.22;;
58460;SDS011;45558;37.752;-97.822;2023-11-19T02:36:37;14.27;;;1.73;;
58460;SDS011;45558;37.752;-97.822;2023-11-19T02:39:03;16.30;;;1.60;;
58460;SDS011;45558;37.752;-97.822;2023-11-19T02:41:33;17.65;;;1.90;;
58460;SDS011;45558;37.752;-97.822;2023-11-19T02:43:59;13.82;;;2.50;;
58460;SDS011;45558;37.752;-97.822;2023-11-19T02:46:24;20.15;;;2.33;;
58460;SDS011;45558;37.752;-97.822;2023-11-19T02:48:51;18.58;;;2.67;;
58460;SDS011;45558;37.752;-97.822;2023-11-19T02:51:17;15.00;;;1.58;;
58460;SDS011;45558;37.752;-97.822;2023-11-19T02:53:43;8.45;;;1.83;;
58460;SDS011;45558;37.752;-97.822;2023-11-19T02:56:13;13.35;;;1.92;;
58460;SDS011;45558;37.752;-97.822;2023-11-19T02:58:45;21.45;;;3.60;;
58460;SDS011;45558;37.752;-97.822;2023-11-19T03:01:11;17.95;;;2.22;;
58460;SDS011;45558;37.752;-97.822;2023-11-19T03:03:54;10.10;;;1.70;;
58460;SDS011;45558;37.752;-97.822;2023-11-19T03:06:23;12.25;;;1.88;;
58460;SDS011;45558;37.752;-97.822;2023-11-19T03:08:49;18.10;;;1.85;;
58460;SDS011;45558;37.752;-97.822;2023-11-19T03:11:16;11.30;;;1.70;;
58460;SDS011;45558;37.752;-97.822;2023-11-19T03:13:42;18.77;;;2.83;;
58460;SDS011;45558;37.752;-97.822;2023-11-19T03:16:07;14.10;;;1.92;;
58460;SDS011;45558;37.752;-97.822;2023-11-19T03:18:33;11.35;;;1.55;;
58460;SDS011;45558;37.752;-97.822;2023-11-19T03:20:59;15.27;;;1.75;;
58460;SDS011;45558;37.752;-97.822;2023-11-19T03:23:26;10.00;;;1.40;;
58460;SDS011;45558;37.752;-97.822;2023-11-19T03:25:54;17.00;;;2.17;;
58460;SDS011;45558;37.752;-97.822;2023-11-19T03:28:22;11.90;;;1.48;;
58460;SDS011;45558;37.752;-97.822;2023-11-19T03:30:47;15.55;;;2.38;;
58460;SDS011;45558;37.752;-97.822;2023-11-19T03:33:13;18.25;;;1.73;;
58460;SDS011;45558;37.752;-97.822;2023-11-19T03:35:39;13.55;;;2.88;;
58460;SDS011;45558;37.752;-97.822;2023-11-19T03:38:06;15.20;;;1.65;;
58460;SDS011;45558;37.752;-97.822;2023-11-19T03:43:54;12.32;;;1.55;;
58460;SDS011;45558;37.752;-97.822;2023-11-19T03:49:42;12.18;;;2.25;;
58460;SDS011;45558;37.752;-97.822;2023-11-19T03:52:07;18.80;;;1.27;;
58460;SDS011;45558;37.752;-97.822;2023-11-19T03:54:34;8.13;;;1.40;;
58460;SDS011;45558;37.752;-97.822;2023-11-19T03:57:00;9.52;;;1.33;;
58460;SDS011;45558;37.752;-97.822;2023-11-19T03:59:28;12.15;;;1.50;;
58460;SDS011;45558;37.752;-97.822;2023-11-19T04:01:53;10.90;;;1.30;;
58460;SDS011;45558;37.752;-97.822;2023-11-19T04:04:21;8.68;;;1.13;;
58460;SDS011;45558;37.752;-97.822;2023-11-19T04:06:47;12.70;;;1.35;;
58460;SDS011;45558;37.752;-97.822;2023-11-19T04:09:13;7.60;;;1.00;;
58460;SDS011;45558;37.752;-97.822;2023-11-19T04:11:39;10.57;;;1.27;;
58460;SDS011;45558;37.752;-97.822;2023-11-19T04:14:05;12.13;;;2.63;;
58460;SDS011;45558;37.752;-97.822;2023-11-19T04:16:31;13.80;;;1.25;;
58460;SDS011;45558;37.752;-97.822;2023-11-19T04:18:56;9.32;;;1.17;;
58460;SDS011;45558;37.752;-97.822;2023-11-19T04:21:22;7.18;;;0.90;;
58460;SDS011;45558;37.752;-97.822;2023-11-19T04:23:48;8.88;;;1.00;;
58460;SDS011;45558;37.752;-97.822;2023-11-19T04:26:14;13.90;;;0.60;;
58460;SDS011;45558;37.752;-97.822;2023-11-19T04:28:40;6.00;;;1.60;;
58460;SDS011;45558;37.752;-97.822;2023-11-19T04:31:06;5.57;;;0.60;;
58460;SDS011;45558;37.752;-97.822;2023-11-19T04:33:34;2.25;;;0.45;;
58460;SDS011;45558;37.752;-97.822;2023-11-19T04:36:00;7.35;;;0.88;;
58460;SDS011;45558;37.752;-97.822;2023-11-19T04:38:25;7.82;;;0.70;;
58460;SDS011;45558;37.752;-97.822;2023-11-19T04:40:52;6.60;;;0.73;;
58460;SDS011;45558;37.752;-97.822;2023-11-19T04:43:17;8.95;;;1.23;;
58460;SDS011;45558;37.752;-97.822;2023-11-19T04:45:44;7.78;;;0.82;;
58460;SDS011;45558;37.752;-97.822;2023-11-19T04:48:10;4.15;;;0.82;;
58460;SDS011;45558;37.752;-97.822;2023-11-19T04:50:37;11.90;;;1.77;;
58460;SDS011;45558;37.752;-97.822;2023-11-19T04:53:03;8.55;;;2.38;;
58460;SDS011;45558;37.752;-97.822;2023-11-19T04:55:29;7.43;;;0.80;;
58460;SDS011;45558;37.752;-97.822;2023-11-19T04:57:55;9.70;;;1.30;;
58460;SDS011;45558;37.752;-97.822;2023-11-19T05:00:20;13.27;;;1.20;;
58460;SDS011;45558;37.752;-97.822;2023-11-19T05:02:46;9.48;;;1.05;;
58460;SDS011;45558;37.752;-97.822;2023-11-19T05:05:12;4.43;;;0.80;;
58460;SDS011;45558;37.752;-97.822;2023-11-19T05:07:38;7.18;;;1.38;;
58460;SDS011;45558;37.752;-97.822;2023-11-19T05:10:04;10.27;;;1.73;;
58460;SDS011;45558;37.752;-97.822;2023-11-19T05:12:31;7.50;;;1.10;;
58460;SDS011;45558;37.752;-97.822;2023-11-19T05:14:56;4.75;;;0.63;;
58460;SDS011;45558;37.752;-97.822;2023-11-19T05:17:23;10.40;;;1.08;;
58460;SDS011;45558;37.752;-97.822;2023-11-19T05:19:49;8.30;;;1.15;;
58460;SDS011;45558;37.752;-97.822;2023-11-19T05:22:15;6.05;;;1.00;;
58460;SDS011;45558;37.752;-97.822;2023-11-19T05:24:40;7.65;;;0.70;;
58460;SDS011;45558;37.752;-97.822;2023-11-19T05:27:06;11.60;;;1.40;;
58460;SDS011;45558;37.752;-97.822;2023-11-19T05:29:33;10.18;;;0.82;;
58460;SDS011;45558;37.752;-97.822;2023-11-19T05:31:58;6.53;;;0.80;;
58460;SDS011;45558;37.752;-97.822;2023-11-19T05:34:24;15.68;;;3.00;;
58460;SDS011;45558;37.752;-97.822;2023-11-19T05:36:50;8.60;;;0.98;;
58460;SDS011;45558;37.752;-97.822;2023-11-19T05:39:16;12.77;;;0.98;;
58460;SDS011;45558;37.752;-97.822;2023-11-19T05:41:43;10.65;;;2.00;;
58460;SDS011;45558;37.752;-97.822;2023-11-19T05:44:09;19.83;;;1.52;;
58460;SDS011;45558;37.752;-97.822;2023-11-19T05:46:35;10.68;;;1.35;;
58460;SDS011;45558;37.752;-97.822;2023-11-19T05:49:05;12.45;;;1.52;;
58460;SDS011;45558;37.752;-97.822;2023-11-19T05:51:31;9.65;;;1.10;;
58460;SDS011;45558;37.752;-97.822;2023-11-19T05:53:56;13.20;;;1.45;;
58460;SDS011;45558;37.752;-97.822;2023-11-19T05:56:22;11.05;;;1.17;;
58460;SDS011;45558;37.752;-97.822;2023-11-19T05:58:48;15.55;;;1.48;;
58460;SDS011;45558;37.752;-97.822;2023-11-19T06:01:14;9.48;;;1.45;;
58460;SDS011;45558;37.752;-97.822;2023-11-19T06:03:40;7.18;;;1.48;;
58460;SDS011;45558;37.752;-97.822;2023-11-19T06:06:08;8.77;;;0.90;;
58460;SDS011;45558;37.752;-97.822;2023-11-19T06:08:34;6.85;;;1.00;;
58460;SDS011;45558;37.752;-97.822;2023-11-19T06:11:00;14.02;;;1.55;;
58460;SDS011;45558;37.752;-97.822;2023-11-19T06:13:26;10.18;;;1.25;;
58460;SDS011;45558;37.752;-97.822;2023-11-19T06:15:52;5.47;;;0.60;;
58460;SDS011;45558;37.752;-97.822;2023-11-19T06:18:18;6.43;;;1.17;;
58460;SDS011;45558;37.752;-97.822;2023-11-19T06:20:45;6.47;;;0.82;;
58460;SDS011;45558;37.752;-97.822;2023-11-19T06:23:11;5.80;;;0.60;;
58460;SDS011;45558;37.752;-97.822;2023-11-19T06:25:36;8.65;;;0.60;;
58460;SDS011;45558;37.752;-97.822;2023-11-19T06:28:02;3.42;;;1.40;;
58460;SDS011;45558;37.752;-97.822;2023-11-19T06:30:28;5.20;;;0.60;;
58460;SDS011;45558;37.752;-97.822;2023-11-19T06:32:55;7.18;;;0.63;;
58460;SDS011;45558;37.752;-97.822;2023-11-19T06:35:21;2.47;;;0.30;;
58460;SDS011;45558;37.752;-97.822;2023-11-19T06:37:47;5.70;;;0.50;;
58460;SDS011;45558;37.752;-97.822;2023-11-19T06:40:13;5.00;;;0.65;;
58460;SDS011;45558;37.752;-97.822;2023-11-19T06:42:40;4.15;;;0.38;;
58460;SDS011;45558;37.752;-97.822;2023-11-19T06:45:06;4.53;;;0.45;;
58460;SDS011;45558;37.752;-97.822;2023-11-19T06:47:32;1.17;;;0.30;;
58460;SDS011;45558;37.752;-97.822;2023-11-19T06:49:58;3.10;;;0.50;;
58460;SDS011;45558;37.752;-97.822;2023-11-19T06:52:24;3.15;;;0.38;;
58460;SDS011;45558;37.752;-97.822;2023-11-19T06:54:50;1.75;;;0.20;;
58460;SDS011;45558;37.752;-97.822;2023-11-19T06:57:15;1.23;;;0.20;;
58460;SDS011;45558;37.752;-97.822;2023-11-19T06:59:41;0.60;;;0.30;;
58460;SDS011;45558;37.752;-97.822;2023-11-19T07:02:07;1.85;;;0.20;;
58460;SDS011;45558;37.752;-97.822;2023-11-19T07:04:34;2.58;;;0.90;;
58460;SDS011;45558;37.752;-97.822;2023-11-19T07:06:59;1.45;;;0.25;;
58460;SDS011;45558;37.752;-97.822;2023-11-19T07:09:25;1.30;;;0.30;;
58460;SDS011;45558;37.752;-97.822;2023-11-19T07:11:52;2.65;;;0.40;;
58460;SDS011;45558;37.752;-97.822;2023-11-19T07:14:18;0.93;;;0.15;;
58460;SDS011;45558;37.752;-97.822;2023-11-19T07:16:45;1.55;;;0.15;;
58460;SDS011;45558;37.752;-97.822;2023-11-19T07:19:11;1.20;;;0.17;;
58460;SDS011;45558;37.752;-97.822;2023-11-19T07:21:37;0.98;;;0.30;;
58460;SDS011;45558;37.752;-97.822;2023-11-19T07:24:09;3.53;;;0.40;;
58460;SDS011;45558;37.752;-97.822;2023-11-19T07:26:43;0.95;;;0.10;;
58460;SDS011;45558;37.752;-97.822;2023-11-19T07:29:09;0.45;;;0.08;;
58460;SDS011;45558;37.752;-97.822;2023-11-19T07:31:35;0.43;;;0.10;;
58460;SDS011;45558;37.752;-97.822;2023-11-19T07:34:02;0.63;;;0.10;;
58460;SDS011;45558;37.752;-97.822;2023-11-19T07:36:28;0.60;;;0.10;;
58460;SDS011;45558;37.752;-97.822;2023-11-19T07:38:54;4.63;;;0.30;;
58460;SDS011;45558;37.752;-97.822;2023-11-19T07:41:22;2.50;;;0.25;;
58460;SDS011;45558;37.752;-97.822;2023-11-19T07:43:50;1.30;;;0.10;;
58460;SDS011;45558;37.752;-97.822;2023-11-19T07:46:17;1.52;;;0.30;;
58460;SDS011;45558;37.752;-97.822;2023-11-19T07:48:44;0.20;;;0.10;;
58460;SDS011;45558;37.752;-97.822;2023-11-19T07:51:12;0.20;;;0.10;;
58460;SDS011;45558;37.752;-97.822;2023-11-19T07:53:38;1.08;;;0.10;;
58460;SDS011;45558;37.752;-97.822;2023-11-19T07:56:05;0.05;;;0.00;;
58460;SDS011;45558;37.752;-97.822;2023-11-19T07:58:32;0.10;;;0.10;;
58460;SDS011;45558;37.752;-97.822;2023-11-19T08:00:58;4.45;;;0.80;;
58460;SDS011;45558;37.752;-97.822;2023-11-19T08:03:24;0.43;;;0.20;;
58460;SDS011;45558;37.752;-97.822;2023-11-19T08:05:49;0.15;;;0.10;;
58460;SDS011;45558;37.752;-97.822;2023-11-19T08:08:16;2.10;;;0.10;;
58460;SDS011;45558;37.752;-97.822;2023-11-19T08:10:42;3.50;;;0.20;;
58460;SDS011;45558;37.752;-97.822;2023-11-19T08:13:12;0.88;;;0.45;;
58460;SDS011;45558;37.752;-97.822;2023-11-19T08:15:42;4.03;;;0.75;;
58460;SDS011;45558;37.752;-97.822;2023-11-19T08:18:09;2.35;;;0.30;;
58460;SDS011;45558;37.752;-97.822;2023-11-19T08:20:35;1.83;;;0.20;;
58460;SDS011;45558;37.752;-97.822;2023-11-19T08:23:04;3.92;;;0.20;;
58460;SDS011;45558;37.752;-97.822;2023-11-19T08:25:33;1.42;;;0.20;;
58460;SDS011;45558;37.752;-97.822;2023-11-19T08:28:06;2.05;;;0.20;;
58460;SDS011;45558;37.752;-97.822;2023-11-19T08:30:33;3.25;;;0.40;;
58460;SDS011;45558;37.752;-97.822;2023-11-19T08:33:00;4.30;;;0.60;;
58460;SDS011;45558;37.752;-97.822;2023-11-19T08:35:28;2.30;;;0.40;;
58460;SDS011;45558;37.752;-97.822;2023-11-19T08:37:55;5.45;;;0.60;;
58460;SDS011;45558;37.752;-97.822;2023-11-19T08:40:20;3.38;;;0.90;;
58460;SDS011;45558;37.752;-97.822;2023-11-19T08:42:46;5.05;;;0.57;;
58460;SDS011;45558;37.752;-97.822;2023-11-19T08:45:12;5.80;;;0.65;;
58460;SDS011;45558;37.752;-97.822;2023-11-19T08:47:37;5.15;;;0.70;;
58460;SDS011;45558;37.752;-97.822;2023-11-19T08:50:05;6.85;;;0.93;;
58460;SDS011;45558;37.752;-97.822;2023-11-19T08:52:33;5.65;;;0.70;;
58460;SDS011;45558;37.752;-97.822;2023-11-19T08:54:59;2.78;;;0.50;;
58460;SDS011;45558;37.752;-97.822;2023-11-19T08:57:26;7.35;;;0.70;;
58460;SDS011;45558;37.752;-97.822;2023-11-19T08:59:52;8.38;;;0.80;;
58460;SDS011;45558;37.752;-97.822;2023-11-19T09:02:18;5.32;;;0.65;;
58460;SDS011;45558;37.752;-97.822;2023-11-19T09:04:43;5.00;;;0.68;;
58460;SDS011;45558;37.752;-97.822;2023-11-19T09:07:09;5.32;;;0.90;;
58460;SDS011;45558;37.752;-97.822;2023-11-19T09:09:35;4.63;;;0.80;;
58460;SDS011;45558;37.752;-97.822;2023-11-19T09:12:02;5.07;;;0.35;;
58460;SDS011;45558;37.752;-97.822;2023-11-19T09:14:31;6.55;;;0.70;;
58460;SDS011;45558;37.752;-97.822;2023-11-19T09:16:57;6.70;;;0.80;;
58460;SDS011;45558;37.752;-97.822;2023-11-19T09:19:25;6.22;;;1.02;;
58460;SDS011;45558;37.752;-97.822;2023-11-19T09:21:54;1.50;;;0.50;;
58460;SDS011;45558;37.752;-97.822;2023-11-19T09:24:20;5.18;;;0.55;;
58460;SDS011;45558;37.752;-97.822;2023-11-19T09:26:46;2.55;;;0.40;;
58460;SDS011;45558;37.752;-97.822;2023-11-19T09:29:12;0.80;;;0.30;;
58460;SDS011;45558;37.752;-97.822;2023-11-19T09:31:39;0.30;;;0.20;;
58460;SDS011;45558;37.752;-97.822;2023-11-19T09:34:05;1.20;;;0.20;;
58460;SDS011;45558;37.752;-97.822;2023-11-19T09:36:33;0.50;;;0.08;;
58460;SDS011;45558;37.752;-97.822;2023-11-19T09:39:00;0.98;;;0.10;;
58460;SDS011;45558;37.752;-97.822;2023-11-19T09:41:27;1.35;;;0.10;;
58460;SDS011;45558;37.752;-97.822;2023-11-19T09:43:53;0.17;;;0.10;;
58460;SDS011;45558;37.752;-97.822;2023-11-19T09:46:19;3.25;;;0.20;;
58460;SDS011;45558;37.752;-97.822;2023-11-19T09:48:45;1.67;;;0.20;;
58460;SDS011;45558;37.752;-97.822;2023-11-19T09:51:13;0.60;;;0.20;;
58460;SDS011;45558;37.752;-97.822;2023-11-19T09:53:39;0.63;;;0.20;;
58460;SDS011;45558;37.752;-97.822;2023-11-19T09:56:05;1.10;;;0.20;;
58460;SDS011;45558;37.752;-97.822;2023-11-19T09:58:33;0.38;;;0.20;;
58460;SDS011;45558;37.752;-97.822;2023-11-19T10:00:59;0.75;;;0.22;;
58460;SDS011;45558;37.752;-97.822;2023-11-19T10:03:34;0.30;;;0.20;;
58460;SDS011;45558;37.752;-97.822;2023-11-19T10:06:03;0.63;;;0.20;;
58460;SDS011;45558;37.752;-97.822;2023-11-19T10:08:30;1.80;;;0.68;;
58460;SDS011;45558;37.752;-97.822;2023-11-19T10:10:55;1.27;;;0.10;;
58460;SDS011;45558;37.752;-97.822;2023-11-19T10:13:27;0.25;;;0.20;;
58460;SDS011;45558;37.752;-97.822;2023-11-19T10:15:55;2.30;;;0.20;;
58460;SDS011;45558;37.752;-97.822;2023-11-19T10:18:25;3.50;;;0.63;;
58460;SDS011;45558;37.752;-97.822;2023-11-19T10:20:52;0.95;;;0.20;;
58460;SDS011;45558;37.752;-97.822;2023-11-19T10:23:20;5.88;;;2.83;;
58460;SDS011;45558;37.752;-97.822;2023-11-19T10:25:47;2.78;;;0.47;;
58460;SDS011;45558;37.752;-97.822;2023-11-19T10:28:15;3.08;;;0.40;;
58460;SDS011;45558;37.752;-97.822;2023-11-19T10:30:43;6.40;;;0.60;;
58460;SDS011;45558;37.752;-97.822;2023-11-19T10:33:10;2.78;;;0.40;;
58460;SDS011;45558;37.752;-97.822;2023-11-19T10:35:58;6.70;;;0.50;;
58460;SDS011;45558;37.752;-97.822;2023-11-19T10:38:25;7.32;;;0.70;;
58460;SDS011;45558;37.752;-97.822;2023-11-19T10:40:52;6.25;;;0.50;;
58460;SDS011;45558;37.752;-97.822;2023-11-19T10:43:20;5.15;;;0.90;;
58460;SDS011;45558;37.752;-97.822;2023-11-19T10:45:52;6.97;;;0.73;;
58460;SDS011;45558;37.752;-97.822;2023-11-19T10:48:18;10.32;;;2.25;;
58460;SDS011;45558;37.752;-97.822;2023-11-19T10:50:45;7.28;;;1.70;;
58460;SDS011;45558;37.752;-97.822;2023-11-19T10:53:12;13.73;;;4.45;;
58460;SDS011;45558;37.752;-97.822;2023-11-19T10:55:38;15.00;;;3.90;;
58460;SDS011;45558;37.752;-97.822;2023-11-19T10:58:05;6.00;;;0.90;;
58460;SDS011;45558;37.752;-97.822;2023-11-19T11:00:38;14.52;;;2.45;;
58460;SDS011;45558;37.752;-97.822;2023-11-19T11:03:19;9.13;;;2.65;;
58460;SDS011;45558;37.752;-97.822;2023-11-19T11:05:46;7.20;;;1.02;;
58460;SDS011;45558;37.752;-97.822;2023-11-19T11:08:13;15.63;;;4.07;;
58460;SDS011;45558;37.752;-97.822;2023-11-19T11:10:40;5.57;;;1.10;;
58460;SDS011;45558;37.752;-97.822;2023-11-19T11:13:09;7.05;;;1.70;;
58460;SDS011;45558;37.752;-97.822;2023-11-19T11:15:35;9.50;;;3.30;;
58460;SDS011;45558;37.752;-97.822;2023-11-19T11:18:02;7.82;;;1.38;;
58460;SDS011;45558;37.752;-97.822;2023-11-19T11:20:31;4.22;;;0.93;;
58460;SDS011;45558;37.752;-97.822;2023-11-19T11:31:07;7.70;;;0.65;;
58460;SDS011;45558;37.752;-97.822;2023-11-19T11:36:43;8.43;;;0.70;;
58460;SDS011;45558;37.752;-97.822;2023-11-19T11:39:22;7.63;;;1.50;;
58460;SDS011;45558;37.752;-97.822;2023-11-19T11:45:07;4.70;;;1.45;;
58460;SDS011;45558;37.752;-97.822;2023-11-19T11:55:25;7.53;;;1.15;;
58460;SDS011;45558;37.752;-97.822;2023-11-19T11:57:51;11.10;;;1.88;;
58460;SDS011;45558;37.752;-97.822;2023-11-19T12:00:21;8.60;;;0.93;;
58460;SDS011;45558;37.752;-97.822;2023-11-19T12:03:07;6.45;;;1.00;;
58460;SDS011;45558;37.752;-97.822;2023-11-19T12:05:41;9.63;;;1.67;;
58460;SDS011;45558;37.752;-97.822;2023-11-19T12:08:10;14.75;;;2.95;;
58460;SDS011;45558;37.752;-97.822;2023-11-19T12:10:37;13.15;;;4.13;;
58460;SDS011;45558;37.752;-97.822;2023-11-19T12:13:10;7.63;;;1.02;;
58460;SDS011;45558;37.752;-97.822;2023-11-19T12:18:26;10.27;;;2.30;;
58460;SDS011;45558;37.752;-97.822;2023-11-19T12:23:19;10.63;;;2.35;;
58460;SDS011;45558;37.752;-97.822;2023-11-19T12:25:46;7.82;;;2.95;;
58460;SDS011;45558;37.752;-97.822;2023-11-19T12:28:12;11.63;;;1.80;;
58460;SDS011;45558;37.752;-97.822;2023-11-19T12:34:00;11.82;;;1.42;;
58460;SDS011;45558;37.752;-97.822;2023-11-19T12:36:26;8.15;;;1.00;;
58460;SDS011;45558;37.752;-97.822;2023-11-19T12:38:52;11.25;;;1.10;;
58460;SDS011;45558;37.752;-97.822;2023-11-19T12:41:21;17.60;;;1.58;;
58460;SDS011;45558;37.752;-97.822;2023-11-19T12:43:49;9.45;;;1.83;;
58460;SDS011;45558;37.752;-97.822;2023-11-19T12:48:50;11.77;;;1.27;;
58460;SDS011;45558;37.752;-97.822;2023-11-19T12:51:17;14.57;;;1.70;;
58460;SDS011;45558;37.752;-97.822;2023-11-19T12:53:50;13.65;;;1.65;;
58460;SDS011;45558;37.752;-97.822;2023-11-19T12:56:24;19.20;;;1.77;;
58460;SDS011;45558;37.752;-97.822;2023-11-19T12:58:50;15.82;;;1.83;;
58460;SDS011;45558;37.752;-97.822;2023-11-19T13:01:17;14.93;;;1.67;;
58460;SDS011;45558;37.752;-97.822;2023-11-19T13:03:46;13.52;;;2.38;;
58460;SDS011;45558;37.752;-97.822;2023-11-19T13:06:14;11.85;;;1.40;;
58460;SDS011;45558;37.752;-97.822;2023-11-19T13:08:47;13.57;;;1.33;;
58460;SDS011;45558;37.752;-97.822;2023-11-19T13:11:29;13.50;;;2.22;;
58460;SDS011;45558;37.752;-97.822;2023-11-19T13:14:03;6.25;;;0.82;;
58460;SDS011;45558;37.752;-97.822;2023-11-19T13:16:37;14.65;;;1.65;;
58460;SDS011;45558;37.752;-97.822;2023-11-19T13:19:03;12.18;;;1.67;;
58460;SDS011;45558;37.752;-97.822;2023-11-19T13:21:30;12.68;;;1.30;;
58460;SDS011;45558;37.752;-97.822;2023-11-19T13:23:56;9.02;;;0.95;;
58460;SDS011;45558;37.752;-97.822;2023-11-19T13:26:22;14.02;;;2.22;;
58460;SDS011;45558;37.752;-97.822;2023-11-19T13:28:52;14.32;;;1.60;;
58460;SDS011;45558;37.752;-97.822;2023-11-19T13:31:17;14.50;;;1.92;;
58460;SDS011;45558;37.752;-97.822;2023-11-19T13:33:43;8.43;;;1.30;;
58460;SDS011;45558;37.752;-97.822;2023-11-19T13:36:09;7.85;;;1.40;;
58460;SDS011;45558;37.752;-97.822;2023-11-19T13:38:35;12.75;;;2.60;;
58460;SDS011;45558;37.752;-97.822;2023-11-19T13:41:04;10.95;;;2.30;;
58460;SDS011;45558;37.752;-97.822;2023-11-19T13:43:31;10.63;;;2.70;;
58460;SDS011;45558;37.752;-97.822;2023-11-19T13:45:56;9.68;;;1.92;;
58460;SDS011;45558;37.752;-97.822;2023-11-19T13:48:25;16.27;;;2.83;;
58460;SDS011;45558;37.752;-97.822;2023-11-19T13:50:52;9.50;;;1.13;;
58460;SDS011;45558;37.752;-97.822;2023-11-19T13:53:18;8.63;;;1.33;;
58460;SDS011;45558;37.752;-97.822;2023-11-19T13:55:44;9.73;;;1.23;;
58460;SDS011;45558;37.752;-97.822;2023-11-19T13:58:10;9.18;;;1.58;;
58460;SDS011;45558;37.752;-97.822;2023-11-19T14:00:36;11.52;;;1.88;;
58460;SDS011;45558;37.752;-97.822;2023-11-19T14:03:02;17.40;;;1.80;;
58460;SDS011;45558;37.752;-97.822;2023-11-19T14:05:28;10.30;;;0.80;;
58460;SDS011;45558;37.752;-97.822;2023-11-19T14:07:54;16.60;;;1.50;;
58460;SDS011;45558;37.752;-97.822;2023-11-19T14:10:22;12.18;;;1.20;;
58460;SDS011;45558;37.752;-97.822;2023-11-19T14:12:48;13.18;;;1.73;;
58460;SDS011;45558;37.752;-97.822;2023-11-19T14:15:15;8.52;;;2.65;;
58460;SDS011;45558;37.752;-97.822;2023-11-19T14:17:42;12.70;;;2.10;;
58460;SDS011;45558;37.752;-97.822;2023-11-19T14:20:08;14.38;;;2.30;;
58460;SDS011;45558;37.752;-97.822;2023-11-19T14:22:44;15.82;;;2.28;;
58460;SDS011;45558;37.752;-97.822;2023-11-19T14:25:12;13.07;;;1.25;;
58460;SDS011;45558;37.752;-97.822;2023-11-19T14:27:51;11.45;;;1.67;;
58460;SDS011;45558;37.752;-97.822;2023-11-19T14:30:18;11.18;;;1.60;;
58460;SDS011;45558;37.752;-97.822;2023-11-19T14:32:44;10.90;;;1.50;;
58460;SDS011;45558;37.752;-97.822;2023-11-19T14:35:11;11.27;;;1.98;;
58460;SDS011;45558;37.752;-97.822;2023-11-19T14:37:37;13.77;;;1.95;;
58460;SDS011;45558;37.752;-97.822;2023-11-19T14:40:03;12.50;;;1.60;;
58460;SDS011;45558;37.752;-97.822;2023-11-19T14:42:31;12.23;;;1.80;;
58460;SDS011;45558;37.752;-97.822;2023-11-19T14:44:57;19.02;;;2.25;;
58460;SDS011;45558;37.752;-97.822;2023-11-19T14:47:23;19.10;;;1.88;;
58460;SDS011;45558;37.752;-97.822;2023-11-19T14:49:50;17.85;;;2.40;;
58460;SDS011;45558;37.752;-97.822;2023-11-19T14:52:16;17.52;;;2.90;;
58460;SDS011;45558;37.752;-97.822;2023-11-19T14:54:42;20.05;;;2.90;;
58460;SDS011;45558;37.752;-97.822;2023-11-19T14:57:08;17.17;;;2.63;;